Terminal Aerodrome Forecast
Issued by NWS Missoula, MT

Home | Current Version | Previous Version | Text Only | Print | Product List | Glossary On
Versions: 1 2 3 4 5 6 7 8 9 10 11 12 13 14 15 16 17 18 19
299
FTUS45 KMSO 230129 AAA
TAFBTM
TAF AMD
KBTM 230129Z 2301/2324 15006KT P6SM VCSH FEW040 OVC060
     FM230300 15010KT 4SM -SN SCT030 OVC050
     FM230600 15005KT P6SM VCSH BKN050
     FM231200 VRB03KT 4SM BR SCT005
     FM231900 28007KT 6SM BR VCSH SCT020=

USA.gov is the U.S. government's official web portal to all federal, state and local government web resources and services.